Time;durP1;ratioP1;P1;durP2;ratioP2;P2;SDS_P1;SDS_P2;PMS_P1;PMS_P2;Temp;Humidity;BMP_temperature;BMP_pressure;BME280_temperature;BME280_humidity;BME280_pressure;Samples;Min_cycle;Max_cycle;Signal;HPM_P1;HPM_P2
2022/04/25 00:02:10;;;;;;;14.10;8.20;;;;;;;5.82;nan;100100.38;4911475;29;20103;-78
2022/04/25 00:04:37;;;;;;;15.67;8.20;;;;;;;5.84;nan;100103.84;4935217;28;20042;-77
2022/04/25 00:07:04;;;;;;;18.23;8.87;;;;;;;5.83;nan;100111.72;4918635;29;20065;-77
2022/04/25 00:09:31;;;;;;;17.33;8.97;;;;;;;5.81;nan;100109.13;4932062;29;20074;-78
2022/04/25 00:11:58;;;;;;;13.47;8.30;;;;;;;5.86;nan;100107.31;4929333;29;20040;-78
2022/04/25 00:14:25;;;;;;;17.17;8.77;;;;;;;5.89;nan;100106.44;4936319;28;20031;-79
2022/04/25 00:16:56;;;;;;;14.53;10.20;;;;;;;5.93;nan;100113.41;4918735;29;20054;-78
2022/04/25 00:19:23;;;;;;;12.97;8.67;;;;;;;5.95;nan;100116.88;4932245;29;20062;-79
2022/04/25 00:21:53;;;;;;;12.77;8.20;;;;;;;5.86;nan;100120.41;4923249;29;20048;-78
2022/04/25 00:24:21;;;;;;;13.30;7.90;;;;;;;5.96;nan;100117.72;4914356;29;20051;-80
2022/04/25 00:26:48;;;;;;;12.93;9.40;;;;;;;5.95;nan;100129.97;4919255;29;20043;-82
2022/04/25 00:29:15;;;;;;;14.83;9.37;;;;;;;5.91;nan;100126.53;4925633;29;20052;-77
2022/04/25 00:31:42;;;;;;;13.13;8.63;;;;;;;5.96;nan;100128.22;4933984;29;20078;-78
2022/04/25 00:34:09;;;;;;;13.80;9.23;;;;;;;5.89;nan;100120.41;4933906;29;20036;-77
2022/04/25 00:36:39;;;;;;;15.90;9.40;;;;;;;5.84;nan;100137.06;4915343;29;20405;-79
2022/04/25 00:39:06;;;;;;;12.60;8.87;;;;;;;5.85;nan;100137.03;4914694;29;20044;-81
2022/04/25 00:41:34;;;;;;;12.40;8.67;;;;;;;5.88;nan;100129.13;4929034;29;20523;-79
2022/04/25 00:44:03;;;;;;;16.00;8.20;;;;;;;5.91;nan;100131.78;4921407;29;20038;-78
2022/04/25 00:46:30;;;;;;;14.13;8.80;;;;;;;5.95;nan;100136.97;4935191;29;20038;-78
2022/04/25 00:48:57;;;;;;;13.93;8.33;;;;;;;5.84;nan;100134.44;4933281;29;20036;-76
2022/04/25 00:51:29;;;;;;;15.27;9.43;;;;;;;5.85;nan;100136.16;4919022;29;20522;-79
2022/04/25 00:53:59;;;;;;;14.45;8.80;;;;;;;5.82;nan;100134.47;4912351;29;20131;-79
2022/04/25 00:56:29;;;;;;;16.97;9.20;;;;;;;5.80;nan;100138.84;4941729;29;20581;-78
2022/04/25 00:58:57;;;;;;;17.00;9.77;;;;;;;5.75;nan;100139.75;4905906;29;20170;-78
2022/04/25 01:01:25;;;;;;;16.07;9.17;;;;;;;5.77;nan;100141.47;4917379;29;20046;-80
2022/04/25 01:03:52;;;;;;;15.10;9.27;;;;;;;5.80;nan;100143.19;4918569;29;20040;-78
2022/04/25 01:06:19;;;;;;;12.70;9.10;;;;;;;5.82;nan;100130.97;4936130;29;20039;-78
2022/04/25 01:08:56;;;;;;;21.23;9.77;;;;;;;5.72;nan;100134.53;4935207;29;20047;-78
2022/04/25 01:11:29;;;;;;;17.43;10.63;;;;;;;5.70;nan;100138.94;4927402;29;20127;-78
2022/04/25 01:14:13;;;;;;;20.90;9.77;;;;;;;5.63;nan;100136.38;4935355;29;20036;-79
2022/04/25 01:16:41;;;;;;;15.32;9.55;;;;;;;5.56;nan;100133.81;4925840;29;20048;-79
2022/04/25 01:19:08;;;;;;;17.67;9.07;;;;;;;5.67;nan;100136.34;4920888;29;20039;-78
2022/04/25 01:21:41;;;;;;;19.93;10.80;;;;;;;5.64;nan;100132.88;4939376;29;20130;-78
2022/04/25 01:27:16;;;;;;;12.37;9.30;;;;;;;5.76;nan;100145.00;4937067;29;20092;-78
2022/04/25 01:29:51;;;;;;;14.53;9.03;;;;;;;5.70;nan;100136.31;4932578;29;20394;-79
2022/04/25 01:32:22;;;;;;;17.03;9.87;;;;;;;5.71;nan;100138.03;4924183;29;20099;-78
2022/04/25 01:34:50;;;;;;;16.70;9.00;;;;;;;5.69;nan;100142.44;4925315;29;20096;-78
2022/04/25 01:37:19;;;;;;;14.90;9.23;;;;;;;5.65;nan;100144.22;4921422;29;20043;-79
2022/04/25 01:39:51;;;;;;;16.67;9.37;;;;;;;5.66;nan;100145.97;4935851;29;20095;-78
2022/04/25 01:42:19;;;;;;;16.67;9.03;;;;;;;5.70;nan;100145.03;4937657;29;20765;-79
2022/04/25 01:44:50;;;;;;;16.67;9.90;;;;;;;5.69;nan;100143.31;4933046;29;20123;-79
2022/04/25 01:47:18;;;;;;;16.07;10.07;;;;;;;5.73;nan;100142.41;4952098;29;20237;-79
2022/04/25 01:49:45;;;;;;;15.70;8.47;;;;;;;5.64;nan;100139.88;4936093;29;20565;-79
2022/04/25 01:52:32;;;;;;;14.57;8.73;;;;;;;5.79;nan;100146.69;4933626;29;20040;-78
2022/04/25 01:55:01;;;;;;;15.67;8.63;;;;;;;5.76;nan;100134.50;4913414;29;20502;-78
2022/04/25 01:57:31;;;;;;;19.60;8.53;;;;;;;5.60;nan;100146.88;4942508;29;20731;-80
2022/04/25 02:00:05;;;;;;;17.95;10.48;;;;;;;5.59;nan;100145.13;4904042;29;20170;-78
2022/04/25 02:02:32;;;;;;;17.20;10.83;;;;;;;5.61;nan;100148.59;4932195;29;20038;-79
2022/04/25 02:04:59;;;;;;;13.33;8.57;;;;;;;5.69;nan;100151.16;4934948;29;20038;-79
2022/04/25 02:07:26;;;;;;;15.63;7.90;;;;;;;5.75;nan;100142.38;4937068;29;20043;-78
2022/04/25 02:09:56;;;;;;;17.50;8.93;;;;;;;5.74;nan;100153.75;4905045;29;20036;-78
2022/04/25 02:12:25;;;;;;;13.83;9.10;;;;;;;5.47;nan;100145.25;4934857;29;20548;-78
2022/04/25 02:14:53;;;;;;;14.67;9.17;;;;;;;5.62;nan;100141.63;4917747;29;20039;-79
2022/04/25 02:17:20;;;;;;;13.17;8.70;;;;;;;5.64;nan;100148.59;4938535;29;20048;-78
2022/04/25 02:19:46;;;;;;;18.20;9.60;;;;;;;5.55;nan;100146.06;4916109;29;20048;-78
2022/04/25 02:22:19;;;;;;;13.30;8.40;;;;;;;5.59;nan;100154.75;4923911;29;20127;-79
2022/04/25 02:24:51;;;;;;;13.33;8.30;;;;;;;5.52;nan;100150.44;4904869;29;20159;-78
2022/04/25 02:27:18;;;;;;;12.47;7.90;;;;;;;5.48;nan;100149.59;4933544;29;20095;-78
2022/04/25 02:29:56;;;;;;;13.93;7.80;;;;;;;5.46;nan;100148.72;4936298;29;20488;-77
2022/04/25 02:32:30;;;;;;;11.60;7.53;;;;;;;5.51;nan;100154.81;4939152;29;20095;-79
2022/04/25 02:34:59;;;;;;;;;;;;;;;5.52;nan;100146.06;4920423;29;20493;-78
2022/04/25 02:37:28;;;;;;;15.07;7.83;;;;;;;5.52;nan;100146.06;4937270;29;20013;-77
2022/04/25 02:39:58;;;;;;;12.80;7.70;;;;;;;5.49;nan;100151.34;4921324;29;20119;-78
2022/04/25 02:42:31;;;;;;;14.60;7.70;;;;;;;5.48;nan;100151.34;4913340;29;20172;-78
2022/04/25 02:44:58;;;;;;;15.03;7.73;;;;;;;5.46;nan;100153.09;4920797;29;20040;-78
2022/04/25 02:47:35;;;;;;;13.37;7.57;;;;;;;5.46;nan;100147.84;4955588;28;20103;-79
2022/04/25 02:50:05;;;;;;;15.60;7.07;;;;;;;5.53;nan;100157.41;4917597;29;20042;-78
2022/04/25 02:52:32;;;;;;;12.23;6.97;;;;;;;5.54;nan;100159.16;4934053;29;20502;-78
2022/04/25 02:54:59;;;;;;;12.43;6.53;;;;;;;5.42;nan;100154.00;4929166;29;20044;-78
2022/04/25 02:57:26;;;;;;;12.13;7.23;;;;;;;5.36;nan;100154.91;5017598;23;20102;-93
2022/04/25 02:59:53;;;;;;;12.57;6.73;;;;;;;5.34;nan;100148.84;4959742;28;20050;-93
2022/04/25 03:02:20;;;;;;;12.40;7.17;;;;;;;5.41;nan;100155.78;4958708;28;20051;-93
2022/04/25 03:04:47;;;;;;;11.47;7.67;;;;;;;5.47;nan;100150.50;4958324;28;20058;-93
2022/04/25 03:07:14;;;;;;;9.03;6.03;;;;;;;5.54;nan;100146.91;4937303;28;20051;-94
2022/04/25 03:09:41;;;;;;;10.57;7.03;;;;;;;5.43;nan;100151.38;4923527;28;20062;-94
2022/04/25 03:12:09;;;;;;;9.10;6.43;;;;;;;5.46;nan;100161.81;4942780;28;20244;-93
2022/04/25 03:14:36;;;;;;;11.83;6.73;;;;;;;5.54;nan;100154.78;4937341;28;20079;-93
2022/04/25 03:17:03;;;;;;;9.70;7.00;;;;;;;5.45;nan;100157.47;4925017;28;20059;-96
2022/04/25 03:19:31;;;;;;;11.93;7.10;;;;;;;5.42;nan;100172.34;4953791;28;20066;-94
2022/04/25 03:21:58;;;;;;;13.37;6.90;;;;;;;5.35;nan;100161.03;4922506;29;20067;-93
2022/04/25 03:24:26;;;;;;;11.83;6.60;;;;;;;5.41;nan;100158.38;4939205;28;20066;-95
2022/04/25 03:26:53;;;;;;;10.63;6.00;;;;;;;5.40;nan;100159.28;4927466;28;20048;-93
2022/04/25 03:29:20;;;;;;;12.77;6.77;;;;;;;5.44;nan;100166.22;4937286;23;20127;-79
2022/04/25 03:31:47;;;;;;;9.47;5.77;;;;;;;5.51;nan;100174.91;4939075;29;20050;-81
2022/04/25 03:34:14;;;;;;;9.30;5.87;;;;;;;5.40;nan;100174.13;4938628;29;20042;-78
2022/04/25 03:36:44;;;;;;;10.57;6.70;;;;;;;5.35;nan;100169.78;4939640;29;20451;-81
2022/04/25 03:39:11;;;;;;;10.43;6.17;;;;;;;5.32;nan;100174.19;4943176;29;20114;-83
2022/04/25 03:41:38;;;;;;;9.83;6.37;;;;;;;5.35;nan;100175.00;4943988;29;20552;-80
2022/04/25 03:44:05;;;;;;;12.73;7.17;;;;;;;5.41;nan;100175.84;4925822;29;20115;-80
2022/04/25 03:46:32;;;;;;;12.90;6.30;;;;;;;5.40;nan;100179.38;4943511;29;20127;-79
2022/04/25 03:48:59;;;;;;;11.13;6.40;;;;;;;5.38;nan;100179.34;4943706;29;20092;-80
2022/04/25 03:51:28;;;;;;;11.50;7.63;;;;;;;5.33;nan;100189.00;4942683;29;20095;-80
2022/04/25 03:53:55;;;;;;;10.70;7.03;;;;;;;5.30;nan;100183.81;4939201;29;20104;-79
2022/04/25 03:59:08;;;;;;;9.43;6.17;;;;;;;5.34;nan;100182.88;4949248;28;20110;-83
2022/04/25 04:01:36;;;;;;;11.87;6.40;;;;;;;5.29;nan;100185.53;4943809;29;20140;-81
2022/04/25 04:04:05;;;;;;;12.97;6.00;;;;;;;5.39;nan;100193.34;4939069;29;20127;-80
2022/04/25 04:06:37;;;;;;;11.40;6.80;;;;;;;5.38;nan;100195.06;4942669;29;20095;-82
2022/04/25 04:09:44;;;;;;;12.87;6.20;;;;;;;5.41;nan;100197.69;4941064;29;20107;-81
2022/04/25 04:11:52;;;;;;;12.53;7.17;;;;;;;5.43;nan;100200.28;4942885;29;20467;-80
2022/04/25 04:14:19;;;;;;;12.13;6.80;;;;;;;5.41;nan;100197.69;4941616;29;20095;-82
2022/04/25 04:16:46;;;;;;;11.00;6.50;;;;;;;5.31;nan;100198.63;4927420;29;20122;-83
2022/04/25 04:19:13;;;;;;;10.93;7.27;;;;;;;5.32;nan;100196.00;4925922;29;20107;-81
2022/04/25 04:21:40;;;;;;;11.70;7.13;;;;;;;5.39;nan;100199.44;4942345;29;20131;-80
2022/04/25 04:24:10;;;;;;;11.20;7.00;;;;;;;5.32;nan;100214.34;4934184;29;20097;-82
2022/04/25 04:26:37;;;;;;;12.43;7.40;;;;;;;5.39;nan;100220.41;4926740;29;20111;-80
2022/04/25 04:29:04;;;;;;;14.27;6.53;;;;;;;5.24;nan;100217.88;4930219;29;20115;-79
2022/04/25 04:31:31;;;;;;;12.13;6.97;;;;;;;5.24;nan;100218.75;4944698;29;20608;-81
2022/04/25 04:33:58;;;;;;;10.73;6.63;;;;;;;5.28;nan;100230.06;4942957;29;20095;-79
2022/04/25 04:36:26;;;;;;;12.67;8.20;;;;;;;5.29;nan;100222.19;4946866;29;20122;-83
2022/04/25 04:38:53;;;;;;;10.90;6.17;;;;;;;5.15;nan;100226.66;4936249;29;20054;-80
2022/04/25 04:41:20;;;;;;;12.57;6.80;;;;;;;5.25;nan;100237.94;4948241;29;20520;-81
2022/04/25 04:43:46;;;;;;;8.53;5.77;;;;;;;5.23;nan;100229.25;4901589;29;20050;-81
2022/04/25 04:46:13;;;;;;;10.77;6.53;;;;;;;5.33;nan;100244.00;4927047;29;20050;-80
2022/04/25 04:48:40;;;;;;;9.63;5.73;;;;;;;5.28;nan;100243.16;4933549;29;20044;-82
2022/04/25 04:51:08;;;;;;;9.73;5.80;;;;;;;5.28;nan;100249.25;4934289;29;20069;-80
2022/04/25 04:53:35;;;;;;;9.57;5.87;;;;;;;5.27;nan;100255.38;4933692;29;20052;-81
2022/04/25 04:56:03;;;;;;;9.70;5.93;;;;;;;5.19;nan;100258.91;4918894;29;20097;-81
2022/04/25 04:58:30;;;;;;;12.27;5.53;;;;;;;5.33;nan;100250.13;4917085;29;20071;-80
2022/04/25 05:00:56;;;;;;;8.60;5.83;;;;;;;5.42;nan;100261.44;4932519;29;20428;-81
2022/04/25 05:03:25;;;;;;;9.63;5.80;;;;;;;5.45;nan;100259.66;4932613;29;20062;-80
2022/04/25 05:05:53;;;;;;;9.10;5.13;;;;;;;5.42;nan;100261.44;4934165;29;20047;-81
2022/04/25 05:08:20;;;;;;;8.93;5.27;;;;;;;5.47;nan;100260.53;4933457;29;20533;-81
2022/04/25 05:10:48;;;;;;;9.20;5.90;;;;;;;5.45;nan;100261.41;4933514;29;20412;-81
2022/04/25 05:13:15;;;;;;;9.33;5.40;;;;;;;5.44;nan;100265.75;4905286;29;21122;-82
2022/04/25 05:15:42;;;;;;;8.93;5.47;;;;;;;5.41;nan;100271.03;4917564;29;20408;-81
2022/04/25 05:18:09;;;;;;;8.90;6.23;;;;;;;5.39;nan;100267.56;4932090;29;20039;-81
2022/04/25 05:20:36;;;;;;;8.27;5.13;;;;;;;5.48;nan;100271.88;4932941;29;20378;-81
2022/04/25 05:23:03;;;;;;;9.77;5.10;;;;;;;5.49;nan;100271.88;4902284;29;20058;-81
2022/04/25 05:25:30;;;;;;;9.47;5.53;;;;;;;5.51;nan;100272.72;4916951;29;20140;-81
2022/04/25 05:27:57;;;;;;;6.47;4.53;;;;;;;5.56;nan;100273.56;4934380;29;20035;-81
2022/04/25 05:30:25;;;;;;;12.63;6.40;;;;;;;5.55;nan;100277.06;4910504;29;20070;-81
2022/04/25 05:32:57;;;;;;;10.70;5.87;;;;;;;5.56;nan;100278.81;4935730;29;20036;-82
2022/04/25 05:35:29;;;;;;;11.70;5.93;;;;;;;5.45;nan;100283.22;4918481;29;20067;-82
2022/04/25 05:37:57;;;;;;;8.40;4.87;;;;;;;5.45;nan;100282.34;4902816;29;20053;-82
2022/04/25 05:40:25;;;;;;;9.80;5.07;;;;;;;5.54;nan;100285.78;4933277;29;20040;-81
2022/04/25 05:42:53;;;;;;;7.77;5.23;;;;;;;5.57;nan;100283.16;4935672;29;20040;-82
2022/04/25 05:45:22;;;;;;;8.00;5.13;;;;;;;5.73;nan;100288.31;4938243;29;20107;-80
2022/04/25 05:47:50;;;;;;;8.13;5.60;;;;;;;5.85;nan;100285.59;4922492;29;20690;-83
2022/04/25 05:53:06;;;;;;;9.17;5.10;;;;;;;6.03;nan;100295.97;4929924;29;20112;-82
2022/04/25 05:55:33;;;;;;;7.77;4.70;;;;;;;6.01;nan;100297.75;4934336;29;20095;-81
2022/04/25 05:58:02;;;;;;;9.60;5.37;;;;;;;6.04;nan;100297.72;4932589;29;20108;-82
2022/04/25 06:00:32;;;;;;;7.83;5.23;;;;;;;5.90;nan;100302.19;4934983;29;20095;-82
2022/04/25 06:03:00;;;;;;;7.73;5.17;;;;;;;5.98;nan;100297.78;4941787;29;20489;-80
2022/04/25 06:05:27;;;;;;;9.37;5.27;;;;;;;6.11;nan;100298.53;4939435;29;20158;-83
2022/04/25 06:07:54;;;;;;;10.40;4.90;;;;;;;6.08;nan;100306.44;4940896;29;20119;-82
2022/04/25 06:10:22;;;;;;;8.00;4.47;;;;;;;6.12;nan;100298.50;4934712;29;20099;-82
2022/04/25 06:12:52;;;;;;;7.27;4.63;;;;;;;6.25;nan;100306.31;4937032;29;20142;-83
2022/04/25 06:15:21;;;;;;;16.37;5.53;;;;;;;6.48;nan;100296.47;4935790;29;20086;-82
2022/04/25 06:17:51;;;;;;;11.67;6.00;;;;;;;6.58;nan;100308.63;4938329;29;20126;-83
2022/04/25 06:20:18;;;;;;;7.43;4.93;;;;;;;6.50;nan;100297.31;4933301;29;20047;-80
2022/04/25 06:22:53;;;;;;;9.10;4.47;;;;;;;6.43;nan;100301.75;4919962;29;20036;-82
2022/04/25 06:25:21;;;;;;;7.23;4.93;;;;;;;6.57;nan;100304.25;4931017;29;20536;-82
2022/04/25 06:27:48;;;;;;;7.53;5.20;;;;;;;6.50;nan;100313.06;4936559;29;20040;-82
2022/04/25 06:30:15;;;;;;;8.50;4.63;;;;;;;6.36;nan;100314.94;4935605;29;20051;-81
2022/04/25 06:32:42;;;;;;;8.63;5.50;;;;;;;6.44;nan;100323.63;4934345;29;20046;-83
2022/04/25 06:35:09;;;;;;;9.80;6.13;;;;;;;6.19;nan;100323.81;4934797;29;20035;-80
2022/04/25 06:37:36;;;;;;;8.10;4.73;;;;;;;6.30;nan;100328.97;4937956;29;20099;-80
2022/04/25 06:40:05;;;;;;;7.10;4.83;;;;;;;6.41;nan;100332.38;4936423;29;20115;-81
2022/04/25 06:42:32;;;;;;;9.00;4.63;;;;;;;6.33;nan;100328.97;4929895;29;20103;-80
2022/04/25 06:44:59;;;;;;;8.30;5.30;;;;;;;6.23;nan;100343.03;4920909;29;20119;-80
2022/04/25 06:47:26;;;;;;;8.90;5.27;;;;;;;6.39;nan;100338.50;4937545;29;20103;-81
2022/04/25 06:49:54;;;;;;;12.43;6.47;;;;;;;6.33;nan;100333.34;4933894;29;20490;-81
2022/04/25 06:52:21;;;;;;;7.60;4.50;;;;;;;6.20;nan;100335.19;4917238;29;20103;-81
2022/04/25 06:54:48;;;;;;;7.67;5.03;;;;;;;6.19;nan;100342.19;4916177;29;20397;-83
2022/04/25 06:57:15;;;;;;;10.80;5.00;;;;;;;6.36;nan;100339.41;4922349;29;20038;-82
2022/04/25 06:59:43;;;;;;;5.77;4.53;;;;;;;6.43;nan;100335.88;4935004;29;20493;-83
2022/04/25 07:02:11;;;;;;;7.33;4.70;;;;;;;6.58;nan;100336.63;4921910;29;20047;-82
2022/04/25 07:04:38;;;;;;;7.43;4.93;;;;;;;6.65;nan;100339.19;4936352;29;20046;-82
2022/04/25 07:07:05;;;;;;;6.87;4.67;;;;;;;6.67;nan;100342.66;4938757;29;20118;-81
2022/04/25 07:09:32;;;;;;;6.67;4.03;;;;;;;6.71;nan;100346.09;4937168;29;20035;-81
2022/04/25 07:12:01;;;;;;;6.77;4.97;;;;;;;6.76;nan;100355.69;4933123;29;20036;-82
2022/04/25 07:14:28;;;;;;;7.93;4.40;;;;;;;6.76;nan;100350.44;4918325;29;20044;-82
2022/04/25 07:16:59;;;;;;;9.87;4.67;;;;;;;6.79;nan;100354.78;4936849;29;20039;-80
2022/04/25 07:19:27;;;;;;;6.13;4.17;;;;;;;6.73;nan;100360.97;4948800;28;20050;-81
2022/04/25 07:30:12;;;;;;;9.83;4.97;;;;;;;6.72;nan;100355.72;4935331;29;20051;-80
2022/04/25 07:32:40;;;;;;;8.83;4.83;;;;;;;6.81;nan;100362.63;4952601;29;20408;-81
2022/04/25 07:35:08;;;;;;;7.70;5.23;;;;;;;6.91;nan;100359.06;4935646;29;20043;-79
2022/04/25 07:37:35;;;;;;;6.33;3.83;;;;;;;6.91;nan;100361.66;4937347;29;20412;-80
2022/04/25 07:40:02;;;;;;;7.70;4.63;;;;;;;6.98;nan;100372.09;4936858;29;20058;-81
2022/04/25 07:42:31;;;;;;;11.73;4.47;;;;;;;7.05;nan;100370.25;4937401;29;20049;-80
2022/04/25 07:44:58;;;;;;;8.73;4.00;;;;;;;7.21;nan;100369.19;4915934;29;20114;-80
2022/04/25 07:47:25;;;;;;;8.90;4.27;;;;;;;7.31;nan;100370.88;4950882;28;20046;-80
2022/04/25 07:49:52;;;;;;;5.70;4.07;;;;;;;7.51;nan;100359.22;4935519;29;20112;-82
2022/04/25 07:52:19;;;;;;;6.80;4.33;;;;;;;7.44;nan;100371.56;4921510;29;20502;-79
2022/04/25 07:54:46;;;;;;;8.40;4.10;;;;;;;7.71;nan;100372.97;4933643;29;20040;-80
2022/04/25 07:57:13;;;;;;;5.30;4.00;;;;;;;7.52;nan;100372.34;4935382;29;20042;-81
2022/04/25 07:59:40;;;;;;;7.33;4.40;;;;;;;7.43;nan;100372.47;4948386;28;20042;-81
2022/04/25 08:02:07;;;;;;;10.20;4.43;;;;;;;7.45;nan;100390.84;4947388;29;20039;-81
2022/04/25 08:04:34;;;;;;;7.20;4.23;;;;;;;7.39;nan;100389.13;4919151;29;20039;-80
2022/04/25 08:07:01;;;;;;;11.03;4.67;;;;;;;7.31;nan;100380.47;4951754;29;20042;-81
2022/04/25 08:09:28;;;;;;;11.60;4.63;;;;;;;7.38;nan;100386.53;4935301;29;20050;-80
2022/04/25 08:20:12;;;;;;;8.20;4.90;;;;;;;7.74;nan;100404.50;4935139;29;20497;-80
2022/04/25 08:22:39;;;;;;;8.87;4.57;;;;;;;7.64;nan;100405.47;4918906;29;20050;-81
2022/04/25 08:25:08;;;;;;;7.30;4.17;;;;;;;7.67;nan;100401.97;4933651;29;20031;-81
2022/04/25 08:27:40;;;;;;;6.95;3.60;;;;;;;7.56;nan;100400.31;4935583;29;20056;-81
2022/04/25 08:30:08;;;;;;;7.13;4.07;;;;;;;7.61;nan;100408.16;4932881;28;20047;-81
2022/04/25 08:32:35;;;;;;;6.57;4.17;;;;;;;7.59;nan;100402.06;4935590;29;20058;-80
2022/04/25 08:35:02;;;;;;;8.27;4.63;;;;;;;7.72;nan;100408.88;4916613;29;20421;-83
2022/04/25 08:37:29;;;;;;;7.03;4.60;;;;;;;7.65;nan;100415.13;4920181;29;20044;-80
2022/04/25 08:40:03;;;;;;;8.17;4.60;;;;;;;7.58;nan;100416.09;4933835;29;20043;-81
2022/04/25 08:42:31;;;;;;;5.30;3.93;;;;;;;7.69;nan;100413.31;4934269;29;20040;-82
2022/04/25 08:45:10;;;;;;;6.00;4.13;;;;;;;7.97;nan;100421.72;4933670;29;20436;-81
2022/04/25 08:47:47;;;;;;;10.73;3.97;;;;;;;8.15;nan;100424.94;4934949;29;20043;-81
2022/04/25 08:50:17;;;;;;;7.07;4.27;;;;;;;8.40;nan;100422.84;4933056;29;20047;-81
2022/04/25 08:52:44;;;;;;;7.20;4.10;;;;;;;8.35;nan;100429.97;4919155;29;20043;-81
2022/04/25 08:55:12;;;;;;;5.83;4.07;;;;;;;8.29;nan;100432.66;4914869;29;20047;-81
2022/04/25 08:57:41;;;;;;;7.87;4.30;;;;;;;8.39;nan;100436.03;4938283;29;20049;-82
2022/04/25 09:00:08;;;;;;;5.87;4.30;;;;;;;8.52;nan;100431.47;4934008;29;20047;-83
2022/04/25 09:02:36;;;;;;;11.47;4.90;;;;;;;8.67;nan;100433.88;4956346;23;20523;-76
2022/04/25 09:05:04;;;;;;;8.50;4.67;;;;;;;8.64;nan;100426.00;4934635;28;20040;-76
2022/04/25 09:07:32;;;;;;;7.77;4.30;;;;;;;8.50;nan;100441.16;4936839;29;20048;-76
2022/04/25 09:09:58;;;;;;;8.40;5.17;;;;;;;8.37;nan;100429.94;4935581;29;20048;-82
2022/04/25 09:12:26;;;;;;;52.13;33.90;;;;;;;8.40;nan;100443.91;4937934;29;20054;-78
2022/04/25 09:14:54;;;;;;;7.67;4.87;;;;;;;8.38;nan;100445.72;4934762;29;20039;-82
2022/04/25 09:17:41;;;;;;;8.20;4.20;;;;;;;8.35;nan;100450.16;4947597;29;20046;-77
2022/04/25 09:20:09;;;;;;;8.20;4.10;;;;;;;8.35;nan;100445.75;4934936;29;20051;-77
2022/04/25 09:22:39;;;;;;;6.17;4.27;;;;;;;8.44;nan;100447.38;4939888;29;20091;-81
2022/04/25 09:25:12;;;;;;;7.07;4.60;;;;;;;8.37;nan;100446.59;4953666;29;20069;-82
2022/04/25 09:28:14;;;;;;;6.17;4.60;;;;;;;8.67;nan;100450.53;4953268;29;20543;-82
2022/04/25 09:31:00;;;;;;;5.70;4.23;;;;;;;8.81;nan;100441.53;4956761;29;20083;-83
2022/04/25 09:33:28;;;;;;;7.90;3.77;;;;;;;8.99;nan;100447.34;4956248;29;20074;-84
2022/04/25 09:35:58;;;;;;;8.13;4.65;;;;;;;9.20;nan;100448.75;4957423;29;20043;-82
2022/04/25 09:38:33;;;;;;;8.65;4.80;;;;;;;9.23;nan;100447.81;4957038;29;20062;-83
2022/04/25 09:41:01;;;;;;;8.13;4.77;;;;;;;9.27;nan;100450.38;4951116;29;20102;-82
2022/04/25 09:43:35;;;;;;;8.13;4.45;;;;;;;9.46;nan;100450.88;4954729;29;20067;-83
2022/04/25 09:46:06;;;;;;;7.32;5.18;;;;;;;9.10;nan;100451.59;4955836;29;20058;-82
2022/04/25 09:48:33;;;;;;;5.50;4.32;;;;;;;9.29;nan;100450.34;4948511;29;20055;-80
2022/04/25 09:51:08;;;;;;;21.80;6.00;;;;;;;9.56;nan;100444.53;4955558;29;20063;-80
2022/04/25 09:53:52;;;;;;;7.53;4.55;;;;;;;9.52;nan;100456.06;4954466;29;20083;-81
2022/04/25 09:56:27;;;;;;;11.05;5.05;;;;;;;9.64;nan;100459.34;4956281;29;20063;-81
2022/04/25 09:59:01;;;;;;;6.80;4.63;;;;;;;9.78;nan;100460.81;4955604;29;20047;-81
2022/04/25 10:01:29;;;;;;;8.90;5.72;;;;;;;9.74;nan;100453.84;4950883;29;20075;-77
2022/04/25 10:03:57;;;;;;;9.13;4.95;;;;;;;9.77;nan;100458.22;4935209;29;20040;-79
2022/04/25 10:06:24;;;;;;;7.93;5.63;;;;;;;9.94;nan;100460.50;4935818;29;20046;-77
2022/04/25 10:08:52;;;;;;;7.50;4.93;;;;;;;10.09;nan;100460.19;4922642;29;20047;-78
2022/04/25 10:11:20;;;;;;;4.95;4.43;;;;;;;10.18;nan;100456.47;4944626;29;20040;-77
2022/04/25 10:13:47;;;;;;;7.50;5.13;;;;;;;10.04;nan;100457.63;4930645;29;20100;-80
2022/04/25 10:16:20;;;;;;;6.38;5.43;;;;;;;10.30;nan;100454.44;4930572;29;20097;-79
2022/04/25 10:18:47;;;;;;;7.38;4.88;;;;;;;10.54;nan;100454.78;4942213;29;20123;-81
2022/04/25 10:21:14;;;;;;;7.22;5.13;;;;;;;10.61;nan;100459.03;4934003;29;20131;-78
2022/04/25 10:23:43;;;;;;;7.85;4.68;;;;;;;10.60;nan;100460.78;4940419;29;20127;-78
2022/04/25 10:26:10;;;;;;;7.47;5.07;;;;;;;11.00;nan;100465.09;4939299;29;20105;-78
2022/04/25 10:28:52;;;;;;;6.38;4.53;;;;;;;11.20;nan;100460.16;4940989;29;20152;-78
2022/04/25 10:31:23;;;;;;;6.57;4.57;;;;;;;11.13;nan;100458.59;4948776;29;20123;-77
2022/04/25 10:33:53;;;;;;;7.03;4.45;;;;;;;11.31;nan;100459.00;4926521;29;20887;-77
2022/04/25 10:36:38;;;;;;;6.55;4.78;;;;;;;11.50;nan;100463.75;4957353;28;20115;-81
2022/04/25 10:39:12;;;;;;;5.57;4.05;;;;;;;11.51;nan;100464.63;4945540;29;20111;-81
2022/04/25 10:44:42;;;;;;;18.13;11.80;;;;;;;11.26;nan;100470.56;4939802;29;20118;-78
2022/04/25 10:47:13;;;;;;;6.10;4.35;;;;;;;11.14;nan;100468.25;4941072;29;20126;-79
2022/04/25 10:49:46;;;;;;;5.90;4.90;;;;;;;10.93;nan;100474.06;4940962;29;20115;-78
2022/04/25 10:52:31;;;;;;;5.53;4.30;;;;;;;11.03;nan;100469.44;4937836;29;20099;-79
2022/04/25 10:55:31;;;;;;;8.60;4.45;;;;;;;10.74;nan;100476.28;4934932;29;20115;-78
2022/04/25 10:58:01;;;;;;;5.22;4.50;;;;;;;11.02;nan;100468.59;4905890;29;20131;-80
2022/04/25 11:00:34;;;;;;;9.13;4.72;;;;;;;10.93;nan;100477.59;4937543;29;20119;-78
2022/04/25 11:03:08;;;;;;;6.45;4.32;;;;;;;10.60;nan;100479.28;4933565;29;20119;-79
2022/04/25 11:05:38;;;;;;;7.95;5.13;;;;;;;10.69;nan;100484.34;4917125;29;20122;-78
2022/04/25 11:08:21;;;;;;;9.18;4.45;;;;;;;10.60;nan;100483.72;4945715;29;20131;-79
2022/04/25 11:10:57;;;;;;;6.13;4.05;;;;;;;10.71;nan;100487.81;4936809;29;20135;-79
2022/04/25 11:13:26;;;;;;;8.00;3.85;;;;;;;10.41;nan;100488.53;4950465;29;20095;-79
2022/04/25 11:15:59;;;;;;;7.88;3.80;;;;;;;10.30;nan;100498.47;4940111;29;20111;-79
2022/04/25 11:18:34;;;;;;;9.60;4.30;;;;;;;10.20;nan;100499.53;4936186;29;20155;-79
2022/04/25 11:21:07;;;;;;;6.25;4.50;;;;;;;10.40;nan;100489.44;4932974;29;20127;-79
2022/04/25 11:23:54;;;;;;;6.40;4.97;;;;;;;10.64;nan;100496.78;4916843;29;20048;-79
2022/04/25 11:26:21;;;;;;;5.15;4.30;;;;;;;10.31;nan;100492.28;4919665;29;20772;-80
2022/04/25 11:28:54;;;;;;;5.70;3.90;;;;;;;10.65;nan;100498.53;4933809;29;20412;-79
2022/04/25 11:31:25;;;;;;;4.78;3.63;;;;;;;10.97;nan;100495.13;4933993;29;20050;-78
2022/04/25 11:33:54;;;;;;;5.63;4.00;;;;;;;11.10;nan;100503.63;4949473;28;20040;-79
2022/04/25 11:36:22;;;;;;;9.73;5.18;;;;;;;11.21;nan;100512.16;4918262;29;20727;-78
2022/04/25 11:41:39;;;;;;;6.63;4.00;;;;;;;11.04;nan;100503.78;4932938;29;20123;-81
2022/04/25 11:44:07;;;;;;;5.35;3.72;;;;;;;11.14;nan;100509.69;4918037;29;20054;-80
2022/04/25 11:46:35;;;;;;;7.32;3.60;;;;;;;11.10;nan;100522.13;4935839;29;20036;-80
2022/04/25 11:49:03;;;;;;;5.15;4.43;;;;;;;11.10;nan;100515.94;4936629;29;20040;-79
2022/04/25 11:51:34;;;;;;;6.72;4.20;;;;;;;11.09;nan;100516.84;4936219;29;20035;-79
2022/04/25 11:54:04;;;;;;;8.27;4.45;;;;;;;11.05;nan;100517.84;4918513;29;20047;-79
2022/04/25 11:56:32;;;;;;;5.97;3.83;;;;;;;11.14;nan;100525.56;4935512;29;20050;-80
2022/04/25 11:59:05;;;;;;;7.40;4.05;;;;;;;10.89;nan;100534.06;4918324;29;20053;-80
2022/04/25 12:01:39;;;;;;;6.45;3.92;;;;;;;10.82;nan;100526.31;4934611;29;20044;-80
2022/04/25 12:04:22;;;;;;;5.70;3.70;;;;;;;10.91;nan;100529.63;4918169;29;20051;-80
2022/04/25 12:07:00;;;;;;;5.97;4.13;;;;;;;10.98;nan;100533.00;4915794;29;20036;-79
2022/04/25 12:15:40;;;;;;;5.85;3.63;;;;;;;10.95;nan;100531.28;4933370;29;20043;-80
2022/04/25 12:18:21;;;;;;;5.63;3.90;;;;;;;11.13;nan;100527.34;4917045;29;20039;-80
2022/04/25 12:21:09;;;;;;;6.93;3.75;;;;;;;11.55;nan;100519.19;4933784;29;20059;-79
2022/04/25 12:23:46;;;;;;;6.95;3.90;;;;;;;12.16;nan;100520.16;4934745;29;20048;-79
2022/04/25 12:26:21;;;;;;;8.48;4.25;;;;;;;12.53;nan;100522.59;4904151;29;20051;-80
2022/04/25 12:28:53;;;;;;;7.40;4.13;;;;;;;12.92;nan;100520.44;4933342;29;20050;-80
2022/04/25 12:31:20;;;;;;;5.35;3.55;;;;;;;13.52;nan;100514.03;4934847;29;20412;-80
2022/04/25 12:33:48;;;;;;;6.40;3.60;;;;;;;13.85;nan;100508.44;4949171;28;20046;-79